Airfield :
LOGIN :

Register | Disclaimer

   EN    FR    IT 

 










Legend :    VFR   Marginal VFR   IFR   Intensive IFR   Very Intensive IFR
Visi :
Ceiling :
>= 8 km
>= 3000ft
5 to 8 km
1000 to 3000 ft
1500m to 5 km
500 to 1000 ft
800 to 1500m
200 to 500 ft
< 800m
< 200 ft
Symbols :   Thunderstorms  Fog  Heavy snow  Heavy precipitations  Wind > 20 kt
SIGMETs :     Misc.  Thunderstorms  Icing  Turbulence  Mountain Waves  Volcanic Ashes






- Airport Elevation : 1508 ft
- IATA code : KRN


ESNQ - Kiruna

CURRENT METAR :
  • 251950Z AUTO 17008KT 9999 BKN068/// OVC084/// 14/03 Q1005

EXPIRED METARs :
  • 251920Z AUTO 16009KT 9999 FEW072/// SCT110/// 15/03 Q1005
  • 251850Z AUTO 15007KT 9999 SCT076/// BKN110/// 16/03 Q1005
  • 251820Z AUTO 17012KT 9999 NCD 17/03 Q1005
  • 251750Z AUTO 16010KT 9999 FEW076/// 17/02 Q1005
  • 251720Z AUTO 16006KT 9999 SCT072/// 17/03 Q1005

Expired Forecast.



MET'MAP, your aeronautical weather chart ! - Copyright ORBIFLY December 2007 - Disclaimer

ORBIFLY MET'MAP TEAM :

Programming & Development : Alexandra Zaïnal
Original concept : Baudouin d'Aumeries
Technical & hardware support : Manuel Goepfert
Assistance : Marc-Olivier Méhu

Contact : metmap@orbifly.com




SOURCES & CREDITS :

   NOAA